Terminal Aerodrome Forecast
Issued by NWS

Current Version | Previous Version | Graphics & Text | Print | Product List | Glossary On
Versions: 1 2 3 4 5 6 7 8 9 10 11 12 13 14 15 16 17
000
FTUS41 KPBZ 211700
TAFMGW
TAF
KMGW 211720Z 2118/2218 19005KT P6SM BKN200
     FM221100 22010KT 6SM -SHRA BKN050
     FM221400 24012G20KT 5SM -SHRA BKN025=

USA.gov is the U.S. government's official web portal to all federal, state and local government web resources and services.